Time;durP1;ratioP1;P1;durP2;ratioP2;P2;SDS_P1;SDS_P2;PMS_P1;PMS_P2;Temp;Humidity;BMP_temperature;BMP_pressure;BME280_temperature;BME280_humidity;BME280_pressure;Samples;Min_cycle;Max_cycle;Signal;HPM_P1;HPM_P2
2021/08/12 00:01:19;;;;;;;4.43;3.22;;;24.60;61.80;;;;;;4996349;28;20396;-64
2021/08/12 00:03:45;;;;;;;3.88;3.20;;;24.60;61.80;;;;;;4993239;28;20570;-64
2021/08/12 00:06:12;;;;;;;3.70;2.93;;;24.60;61.80;;;;;;4984809;28;20438;-64
2021/08/12 00:08:37;;;;;;;4.57;3.22;;;24.60;61.80;;;;;;4994465;28;20444;-64
2021/08/12 00:11:04;;;;;;;3.77;3.00;;;24.60;61.80;;;;;;4992096;28;20399;-64
2021/08/12 00:13:29;;;;;;;4.28;2.95;;;24.50;61.70;;;;;;4992688;28;21179;-64
2021/08/12 00:15:55;;;;;;;4.30;2.70;;;24.60;61.80;;;;;;4992208;28;21378;-64
2021/08/12 00:18:21;;;;;;;3.93;3.30;;;24.50;61.70;;;;;;4986533;28;21009;-64
2021/08/12 00:20:46;;;;;;;3.80;2.90;;;24.60;61.80;;;;;;5004185;28;20766;-64
2021/08/12 00:23:12;;;;;;;3.83;2.87;;;24.50;61.70;;;;;;4991672;28;20466;-64
2021/08/12 00:25:38;;;;;;;3.60;2.80;;;24.60;61.70;;;;;;4989501;28;20406;-64
2021/08/12 00:28:03;;;;;;;4.32;3.05;;;24.60;61.70;;;;;;4990243;28;20399;-64
2021/08/12 00:30:31;;;;;;;3.40;2.60;;;24.50;61.70;;;;;;4992418;28;20412;-64
2021/08/12 00:32:57;;;;;;;3.72;2.72;;;24.60;61.70;;;;;;4991269;28;20449;-64
2021/08/12 00:35:22;;;;;;;4.00;2.87;;;24.60;61.70;;;;;;4988152;28;20550;-64
2021/08/12 00:37:48;;;;;;;3.70;3.00;;;24.50;61.70;;;;;;4991380;28;20877;-65
2021/08/12 00:40:17;;;;;;;4.10;3.00;;;24.60;61.60;;;;;;4987930;28;20410;-65
2021/08/12 00:42:42;;;;;;;4.03;3.17;;;24.50;61.60;;;;;;4991083;28;20394;-64
2021/08/12 00:45:08;;;;;;;3.50;3.10;;;24.50;61.60;;;;;;4988342;28;20445;-64
2021/08/12 00:47:34;;;;;;;3.50;2.72;;;24.50;61.50;;;;;;4988085;28;20905;-64
2021/08/12 00:50:00;;;;;;;3.60;3.00;;;24.50;62.10;;;;;;4992524;28;20573;-64
2021/08/12 00:52:25;;;;;;;3.40;2.92;;;24.50;61.50;;;;;;4992237;28;20394;-64
2021/08/12 00:54:51;;;;;;;3.70;2.93;;;24.50;61.50;;;;;;4992189;28;20424;-64
2021/08/12 00:57:19;;;;;;;3.40;2.70;;;24.50;61.50;;;;;;4986362;28;20403;-64
2021/08/12 00:59:45;;;;;;;3.75;2.60;;;24.50;61.50;;;;;;4991256;28;20789;-64
2021/08/12 01:02:11;;;;;;;3.43;2.80;;;24.50;61.50;;;;;;4991102;28;20397;-64
2021/08/12 01:04:47;;;;;;;3.42;2.70;;;24.50;61.50;;;;;;4994689;28;20425;-64
2021/08/12 01:07:21;;;;;;;3.35;2.80;;;24.50;61.40;;;;;;4993471;28;20762;-64
2021/08/12 01:10:12;;;;;;;3.50;2.95;;;24.50;61.40;;;;;;5008385;28;20411;-64
2021/08/12 01:13:16;;;;;;;3.88;3.10;;;24.50;61.40;;;;;;4991850;28;20386;-64
2021/08/12 01:15:47;;;;;;;3.35;2.60;;;24.50;61.40;;;;;;4990355;28;20438;-64
2021/08/12 01:18:22;;;;;;;3.30;2.83;;;24.50;61.40;;;;;;4990827;28;20419;-64
2021/08/12 01:21:19;;;;;;;3.33;2.70;;;24.50;61.40;;;;;;4992135;28;20843;-64
2021/08/12 01:23:45;;;;;;;3.33;2.63;;;24.50;61.40;;;;;;4996662;28;20472;-64
2021/08/12 01:26:14;;;;;;;3.10;2.60;;;24.50;61.40;;;;;;4986451;28;20437;-64
2021/08/12 01:28:46;;;;;;;3.53;2.78;;;24.50;61.40;;;;;;4988013;28;20390;-64
2021/08/12 01:31:35;;;;;;;3.17;2.85;;;24.50;61.30;;;;;;4987492;28;20397;-64
2021/08/12 01:34:20;;;;;;;3.15;2.60;;;24.50;61.30;;;;;;4990585;28;20475;-64
2021/08/12 01:36:48;;;;;;;3.60;2.78;;;24.50;61.30;;;;;;4991426;28;20425;-64
2021/08/12 01:39:15;;;;;;;3.20;2.67;;;24.50;61.30;;;;;;4996250;28;20393;-64
2021/08/12 01:41:42;;;;;;;3.60;2.80;;;24.50;61.30;;;;;;4996127;28;20881;-64
2021/08/12 01:44:11;;;;;;;3.17;2.80;;;24.50;61.20;;;;;;4990517;28;20383;-64
2021/08/12 01:46:37;;;;;;;3.00;2.55;;;24.50;61.20;;;;;;4990411;28;20390;-64
2021/08/12 01:49:04;;;;;;;3.00;2.47;;;24.40;61.20;;;;;;4989204;28;20402;-64
2021/08/12 01:51:32;;;;;;;3.78;2.83;;;24.50;61.20;;;;;;4990620;28;20395;-64
2021/08/12 01:54:00;;;;;;;4.00;2.80;;;24.40;61.10;;;;;;4991070;28;20425;-64
2021/08/12 01:56:28;;;;;;;2.95;2.60;;;24.40;61.10;;;;;;4990510;28;20777;-64
2021/08/12 01:58:57;;;;;;;2.95;2.50;;;24.40;61.10;;;;;;4990059;28;20963;-64
2021/08/12 02:01:25;;;;;;;3.13;2.50;;;24.50;61.10;;;;;;4989805;28;20412;-64
2021/08/12 02:03:51;;;;;;;2.80;2.50;;;24.40;61.10;;;;;;4990458;28;20715;-64
2021/08/12 02:06:19;;;;;;;3.25;2.70;;;24.40;61.10;;;;;;4990179;28;20392;-64
2021/08/12 02:08:44;;;;;;;3.35;2.55;;;24.40;61.00;;;;;;4985684;28;20471;-64
2021/08/12 02:11:12;;;;;;;3.28;2.70;;;24.40;61.00;;;;;;4990766;28;20561;-64
2021/08/12 02:13:37;;;;;;;3.40;2.70;;;24.50;61.00;;;;;;4989495;28;20433;-64
2021/08/12 02:16:08;;;;;;;2.90;2.40;;;24.40;61.00;;;;;;4993263;28;20462;-64
2021/08/12 02:18:34;;;;;;;2.85;2.50;;;24.40;60.90;;;;;;4993305;28;20407;-64
2021/08/12 02:21:07;;;;;;;2.80;2.50;;;24.40;61.00;;;;;;4995925;28;20406;-64
2021/08/12 02:23:41;;;;;;;2.78;2.30;;;24.40;61.00;;;;;;4986285;28;20929;-64
2021/08/12 02:26:09;;;;;;;2.92;2.63;;;24.40;60.90;;;;;;4986198;28;20391;-64
2021/08/12 02:28:36;;;;;;;4.03;2.35;;;24.40;60.90;;;;;;4990458;28;20941;-64
2021/08/12 02:31:05;;;;;;;2.78;2.47;;;24.40;60.90;;;;;;4988487;28;20408;-64
2021/08/12 02:33:36;;;;;;;2.95;2.55;;;24.40;60.90;;;;;;4989093;28;20393;-64
2021/08/12 02:36:05;;;;;;;3.40;2.80;;;24.40;60.90;;;;;;4991421;28;20978;-64
2021/08/12 02:38:33;;;;;;;3.10;2.70;;;24.40;60.90;;;;;;4992951;28;21006;-64
2021/08/12 02:40:59;;;;;;;2.60;2.40;;;24.40;60.90;;;;;;4993247;28;20468;-64
2021/08/12 02:43:27;;;;;;;3.20;2.30;;;24.40;60.90;;;;;;4992826;28;20389;-64
2021/08/12 02:45:58;;;;;;;2.80;2.30;;;24.40;60.80;;;;;;4993966;28;20397;-64
2021/08/12 02:48:28;;;;;;;3.20;2.60;;;24.40;60.90;;;;;;4987028;28;20481;-64
2021/08/12 02:50:55;;;;;;;3.03;2.45;;;24.40;60.80;;;;;;4986903;28;20405;-64
2021/08/12 02:53:21;;;;;;;2.80;2.50;;;24.40;60.80;;;;;;4992473;28;20398;-64
2021/08/12 02:55:48;;;;;;;2.90;2.40;;;24.40;60.80;;;;;;4989320;28;20513;-64
2021/08/12 02:58:15;;;;;;;3.20;2.55;;;24.40;60.60;;;;;;4989097;28;20402;-64
2021/08/12 03:00:40;;;;;;;3.43;2.73;;;24.30;60.70;;;;;;4995941;28;20472;-64
2021/08/12 03:03:07;;;;;;;2.78;2.47;;;24.40;60.70;;;;;;4989202;28;20867;-64
2021/08/12 03:05:35;;;;;;;4.50;2.50;;;24.40;60.70;;;;;;4988631;28;20504;-64
2021/08/12 03:08:03;;;;;;;3.15;2.33;;;24.40;60.70;;;;;;4989556;28;20995;-64
2021/08/12 03:10:30;;;;;;;3.47;2.70;;;24.30;60.50;;;;;;4989686;28;20435;-64
2021/08/12 03:12:58;;;;;;;3.30;2.70;;;24.30;61.00;;;;;;5027239;28;20404;-64
2021/08/12 03:15:25;;;;;;;3.57;2.80;;;24.30;61.00;;;;;;4989037;28;20414;-64
2021/08/12 03:17:52;;;;;;;3.80;2.97;;;24.30;61.80;;;;;;4988860;28;20910;-64
2021/08/12 03:20:18;;;;;;;3.47;2.88;;;24.40;61.30;;;;;;4992171;28;20426;-64
2021/08/12 03:22:44;;;;;;;8.40;2.90;;;24.40;61.30;;;;;;4983891;28;20418;-64
2021/08/12 03:25:10;;;;;;;4.67;3.00;;;24.30;62.30;;;;;;4993906;28;20388;-64
2021/08/12 03:27:35;;;;;;;4.32;2.90;;;24.40;62.20;;;;;;4988357;28;20774;-64
2021/08/12 03:30:01;;;;;;;3.57;2.90;;;24.40;62.10;;;;;;4988940;28;20396;-64
2021/08/12 03:32:27;;;;;;;5.00;3.08;;;24.50;62.10;;;;;;4988695;28;20389;-64
2021/08/12 03:34:52;;;;;;;3.80;3.00;;;24.50;62.40;;;;;;4988974;28;20491;-64
2021/08/12 03:37:18;;;;;;;4.93;3.10;;;24.40;62.30;;;;;;4990850;28;20402;-64
2021/08/12 03:39:43;;;;;;;4.97;2.80;;;24.50;61.70;;;;;;4988405;28;20397;-64
2021/08/12 03:42:10;;;;;;;3.63;3.00;;;24.50;62.70;;;;;;4994472;28;20474;-64
2021/08/12 03:44:35;;;;;;;4.30;3.30;;;24.50;62.30;;;;;;4988012;28;20484;-64
2021/08/12 03:47:01;;;;;;;3.20;2.90;;;24.50;62.40;;;;;;4989269;28;20489;-64
2021/08/12 03:49:27;;;;;;;9.23;3.30;;;24.50;62.50;;;;;;4988526;28;20386;-64
2021/08/12 03:51:52;;;;;;;3.50;2.93;;;24.50;62.00;;;;;;4989504;28;20401;-64
2021/08/12 03:54:18;;;;;;;3.70;2.72;;;24.50;62.00;;;;;;4989133;28;20780;-64
2021/08/12 03:56:44;;;;;;;4.63;3.00;;;24.50;61.70;;;;;;4989352;28;20449;-64
2021/08/12 03:59:09;;;;;;;3.33;2.97;;;24.40;61.80;;;;;;4992099;28;20896;-64
2021/08/12 04:01:35;;;;;;;5.47;2.85;;;24.40;61.90;;;;;;4988355;28;20424;-64
2021/08/12 04:04:03;;;;;;;4.55;3.03;;;24.40;61.80;;;;;;4986718;28;20386;-64
2021/08/12 04:06:29;;;;;;;6.53;3.53;;;24.40;61.60;;;;;;4988364;28;20449;-64
2021/08/12 04:08:54;;;;;;;5.35;3.75;;;24.40;61.20;;;;;;4992083;28;20811;-64
2021/08/12 04:11:20;;;;;;;6.87;4.10;;;24.40;60.70;;;;;;4987902;28;20382;-65
2021/08/12 04:13:46;;;;;;;6.73;4.17;;;24.30;60.20;;;;;;4992920;28;20397;-64
2021/08/12 04:16:12;;;;;;;4.63;3.60;;;24.30;60.00;;;;;;4988991;28;20920;-64
2021/08/12 04:18:37;;;;;;;5.07;3.60;;;24.30;60.00;;;;;;4988995;28;20402;-64
2021/08/12 04:21:03;;;;;;;4.80;3.10;;;24.30;59.80;;;;;;4989001;28;20406;-64
2021/08/12 04:23:29;;;;;;;4.57;3.30;;;24.30;60.00;;;;;;4988398;28;20445;-64
2021/08/12 04:25:55;;;;;;;4.40;3.20;;;24.30;59.90;;;;;;4989735;28;20498;-64
2021/08/12 04:28:20;;;;;;;3.90;3.00;;;24.30;60.00;;;;;;4989087;28;20901;-64
2021/08/12 04:30:48;;;;;;;5.23;3.30;;;24.20;60.10;;;;;;4982600;28;20909;-64
2021/08/12 04:33:18;;;;;;;3.85;3.05;;;24.30;60.20;;;;;;4984450;28;20474;-64
2021/08/12 04:35:44;;;;;;;3.88;2.88;;;24.30;60.20;;;;;;4985251;28;20423;-64
2021/08/12 04:38:10;;;;;;;3.92;3.25;;;24.20;60.20;;;;;;4991196;28;20397;-64
2021/08/12 04:40:36;;;;;;;4.05;3.17;;;24.30;60.30;;;;;;4991636;28;20385;-64
2021/08/12 04:43:02;;;;;;;3.40;3.10;;;24.20;60.30;;;;;;4990325;28;21180;-64
2021/08/12 04:45:28;;;;;;;3.40;3.03;;;24.20;60.30;;;;;;4989570;28;20405;-64
2021/08/12 04:48:03;;;;;;;4.60;3.22;;;24.20;60.30;;;;;;4990229;28;20393;-64
2021/08/12 04:50:29;;;;;;;3.70;3.10;;;24.20;60.40;;;;;;4996368;28;20499;-64
2021/08/12 04:52:55;;;;;;;4.23;3.20;;;24.20;60.40;;;;;;4994810;28;20475;-64
2021/08/12 04:55:21;;;;;;;5.57;3.10;;;24.20;60.40;;;;;;4992351;28;20509;-64
2021/08/12 04:57:47;;;;;;;3.97;3.07;;;24.20;60.40;;;;;;4996572;28;20385;-64
2021/08/12 05:00:13;;;;;;;3.85;3.03;;;24.20;60.40;;;;;;4992197;28;20407;-64
2021/08/12 05:02:39;;;;;;;4.60;3.20;;;24.20;60.40;;;;;;4991943;28;20409;-64
2021/08/12 05:05:05;;;;;;;4.60;2.85;;;24.20;60.40;;;;;;4991787;28;20949;-64
2021/08/12 05:07:30;;;;;;;3.70;2.90;;;24.20;60.50;;;;;;4991718;28;20402;-64
2021/08/12 05:09:56;;;;;;;3.30;2.80;;;24.20;60.50;;;;;;4991816;28;20953;-64
2021/08/12 05:12:22;;;;;;;3.43;3.10;;;24.20;60.50;;;;;;4991321;28;20392;-64
2021/08/12 05:14:49;;;;;;;3.90;2.97;;;24.20;60.50;;;;;;4991107;28;20392;-64
2021/08/12 05:17:14;;;;;;;3.25;2.80;;;24.20;60.50;;;;;;4991193;28;20404;-64
2021/08/12 05:19:40;;;;;;;3.78;3.03;;;24.20;60.50;;;;;;4996275;28;20402;-65
2021/08/12 05:22:06;;;;;;;3.75;3.03;;;24.20;60.50;;;;;;4985887;28;20398;-64
2021/08/12 05:24:32;;;;;;;3.33;3.00;;;24.20;60.50;;;;;;4985606;28;20737;-64
2021/08/12 05:26:58;;;;;;;4.05;3.42;;;24.20;60.50;;;;;;4995761;28;20892;-64
2021/08/12 05:29:23;;;;;;;3.87;3.23;;;24.20;60.60;;;;;;4996127;28;20813;-64
2021/08/12 05:31:49;;;;;;;3.30;2.85;;;24.20;60.60;;;;;;4996682;28;20777;-64
2021/08/12 05:34:14;;;;;;;3.60;3.17;;;24.20;60.60;;;;;;4991428;28;20903;-64
2021/08/12 05:36:40;;;;;;;3.38;2.95;;;24.10;60.50;;;;;;4991894;28;20891;-64
2021/08/12 05:39:06;;;;;;;4.70;3.40;;;24.10;60.50;;;;;;4991532;28;20394;-64
2021/08/12 05:41:31;;;;;;;4.00;3.20;;;24.10;60.50;;;;;;4990951;28;20405;-64
2021/08/12 05:43:57;;;;;;;3.83;2.90;;;24.10;60.50;;;;;;4987240;28;20399;-64
2021/08/12 05:46:23;;;;;;;3.40;3.10;;;24.10;60.50;;;;;;4989882;28;20394;-64
2021/08/12 05:48:48;;;;;;;4.68;3.30;;;24.10;60.60;;;;;;4995380;28;20421;-64
2021/08/12 05:51:14;;;;;;;4.07;3.10;;;24.10;60.60;;;;;;4989946;28;20401;-64
2021/08/12 05:53:40;;;;;;;3.50;3.20;;;24.10;60.60;;;;;;4989784;28;20505;-64
2021/08/12 05:56:05;;;;;;;3.73;3.17;;;24.10;60.60;;;;;;4990398;28;20517;-64
2021/08/12 05:58:34;;;;;;;3.85;3.13;;;24.10;60.70;;;;;;4990322;28;20422;-64
2021/08/12 06:01:00;;;;;;;4.00;3.20;;;24.10;60.70;;;;;;4991130;28;20499;-64
2021/08/12 06:03:26;;;;;;;3.25;2.90;;;24.10;60.70;;;;;;4991046;28;20495;-64
2021/08/12 06:05:56;;;;;;;4.35;3.13;;;24.10;60.70;;;;;;4993642;28;20400;-64
2021/08/12 06:08:22;;;;;;;3.78;3.10;;;24.10;60.70;;;;;;4990775;28;21174;-64
2021/08/12 06:10:47;;;;;;;3.80;3.20;;;24.10;60.70;;;;;;4990868;28;20399;-64
2021/08/12 06:13:13;;;;;;;3.80;3.37;;;24.10;60.70;;;;;;4990507;28;20402;-64
2021/08/12 06:15:39;;;;;;;3.58;3.00;;;24.10;60.70;;;;;;4990555;28;20426;-64
2021/08/12 06:18:09;;;;;;;3.53;3.08;;;24.10;60.70;;;;;;4990983;28;20917;-64
2021/08/12 06:20:35;;;;;;;3.80;3.22;;;24.10;60.70;;;;;;4992054;28;20902;-64
2021/08/12 06:23:01;;;;;;;3.85;3.20;;;24.10;60.80;;;;;;4985289;28;20457;-64
2021/08/12 06:25:27;;;;;;;3.77;3.17;;;24.10;60.80;;;;;;4994217;28;20428;-64
2021/08/12 06:27:52;;;;;;;4.05;3.33;;;24.10;60.80;;;;;;4988085;28;20423;-64
2021/08/12 06:30:18;;;;;;;4.30;3.27;;;24.10;60.80;;;;;;4989868;28;20489;-64
2021/08/12 06:32:44;;;;;;;3.40;2.90;;;24.10;60.70;;;;;;4992183;28;21026;-64
2021/08/12 06:35:12;;;;;;;4.30;3.13;;;24.10;60.70;;;;;;4985776;28;20406;-64
2021/08/12 06:37:45;;;;;;;3.75;3.00;;;24.10;60.80;;;;;;4994414;28;20402;-64
2021/08/12 06:40:13;;;;;;;3.88;3.17;;;24.10;60.80;;;;;;4993306;28;20502;-64
2021/08/12 06:42:39;;;;;;;3.80;3.00;;;24.10;60.80;;;;;;4995170;28;20515;-64
2021/08/12 06:45:06;;;;;;;3.97;3.07;;;24.10;60.80;;;;;;4988127;28;21246;-64
2021/08/12 06:47:32;;;;;;;3.92;2.90;;;24.10;60.80;;;;;;4993162;28;20402;-64
2021/08/12 06:49:57;;;;;;;3.63;3.00;;;24.10;60.80;;;;;;4990053;28;20394;-65
2021/08/12 06:52:23;;;;;;;3.90;3.30;;;24.10;60.70;;;;;;4990302;28;20414;-64
2021/08/12 06:54:48;;;;;;;3.38;2.95;;;24.10;60.80;;;;;;4990116;28;20386;-64
2021/08/12 06:57:14;;;;;;;3.30;2.90;;;24.10;60.80;;;;;;4988683;28;20402;-64
2021/08/12 06:59:40;;;;;;;3.47;2.90;;;24.10;60.80;;;;;;4984415;28;20394;-64
2021/08/12 07:02:06;;;;;;;3.60;3.10;;;24.10;60.80;;;;;;4991576;28;20463;-64
2021/08/12 07:04:31;;;;;;;3.88;3.10;;;24.10;60.80;;;;;;4993693;28;20395;-64
2021/08/12 07:06:57;;;;;;;3.90;3.10;;;24.10;60.80;;;;;;4988936;28;20389;-64
2021/08/12 07:09:22;;;;;;;3.70;3.22;;;24.10;60.80;;;;;;4996309;28;20393;-64
2021/08/12 07:11:50;;;;;;;3.65;3.20;;;24.10;60.80;;;;;;4991529;28;20747;-64
2021/08/12 07:14:15;;;;;;;3.30;2.92;;;24.10;60.90;;;;;;4988942;28;20433;-64
2021/08/12 07:16:41;;;;;;;4.25;3.38;;;24.10;60.90;;;;;;4996447;28;20852;-64
2021/08/12 07:19:07;;;;;;;3.73;3.37;;;24.10;61.00;;;;;;4998865;28;20968;-64
2021/08/12 07:21:32;;;;;;;3.67;3.07;;;24.10;60.90;;;;;;4989567;28;20924;-64
2021/08/12 07:23:58;;;;;;;3.45;3.00;;;24.10;60.90;;;;;;4990686;28;20757;-64
2021/08/12 07:26:24;;;;;;;3.80;3.20;;;24.10;60.90;;;;;;4984493;28;20880;-64
2021/08/12 07:28:50;;;;;;;3.40;3.07;;;24.10;61.00;;;;;;4989586;28;20405;-64
2021/08/12 07:31:17;;;;;;;3.47;3.00;;;24.10;60.90;;;;;;4992902;28;20811;-64
2021/08/12 07:33:43;;;;;;;3.50;2.95;;;24.10;60.90;;;;;;4989533;28;20386;-64
2021/08/12 07:36:09;;;;;;;3.87;3.27;;;24.10;61.00;;;;;;4989033;28;20453;-64
2021/08/12 07:38:35;;;;;;;4.00;3.20;;;24.10;60.90;;;;;;4991533;28;20397;-64
2021/08/12 07:41:01;;;;;;;3.63;3.13;;;24.10;61.00;;;;;;4994722;28;20400;-64
2021/08/12 07:43:28;;;;;;;3.40;3.00;;;24.10;61.00;;;;;;4989044;28;20488;-64
2021/08/12 07:45:54;;;;;;;4.60;3.10;;;24.10;60.90;;;;;;4991813;28;20455;-64
2021/08/12 07:48:20;;;;;;;3.53;3.07;;;24.10;60.80;;;;;;4994675;28;20425;-64
2021/08/12 07:50:47;;;;;;;3.47;3.00;;;24.10;60.90;;;;;;4990488;28;20402;-64
2021/08/12 07:53:13;;;;;;;3.50;2.95;;;24.10;60.80;;;;;;4993530;28;20447;-64
2021/08/12 07:55:39;;;;;;;3.50;3.00;;;24.10;60.90;;;;;;4987109;28;20918;-64
2021/08/12 07:58:05;;;;;;;4.05;3.08;;;24.10;60.90;;;;;;4991995;28;20401;-64
2021/08/12 08:00:31;;;;;;;3.45;2.92;;;24.10;60.80;;;;;;4989263;28;20405;-64
2021/08/12 08:02:56;;;;;;;3.20;2.90;;;24.10;60.80;;;;;;4988190;28;20406;-65
2021/08/12 08:05:24;;;;;;;3.55;3.00;;;24.20;60.90;;;;;;4989078;28;20402;-64
2021/08/12 08:07:51;;;;;;;4.35;3.15;;;24.10;60.80;;;;;;4984114;28;20994;-64
2021/08/12 08:10:19;;;;;;;3.33;2.90;;;24.20;60.80;;;;;;4989264;28;20406;-64
2021/08/12 08:12:45;;;;;;;3.20;2.78;;;24.20;60.90;;;;;;4990215;28;20398;-64
2021/08/12 08:15:12;;;;;;;3.38;2.97;;;24.20;60.90;;;;;;4991313;28;20464;-64
2021/08/12 08:17:38;;;;;;;3.85;3.30;;;24.20;61.00;;;;;;4995620;28;20583;-64
2021/08/12 08:20:05;;;;;;;3.47;3.15;;;24.20;60.80;;;;;;4990275;28;20504;-64
2021/08/12 08:22:31;;;;;;;3.42;3.00;;;24.10;60.80;;;;;;4992169;28;20400;-64
2021/08/12 08:24:57;;;;;;;3.63;2.90;;;24.20;60.90;;;;;;4995224;28;20395;-64
2021/08/12 08:27:23;;;;;;;3.53;3.20;;;24.20;60.90;;;;;;4991241;28;20516;-64
2021/08/12 08:29:49;;;;;;;3.25;2.85;;;24.20;60.90;;;;;;4992812;28;20734;-64
2021/08/12 08:32:15;;;;;;;3.20;2.90;;;24.20;60.90;;;;;;4994364;28;20423;-64
2021/08/12 08:34:42;;;;;;;3.72;3.05;;;24.20;60.90;;;;;;4995193;28;20396;-64
2021/08/12 08:37:08;;;;;;;3.45;2.83;;;24.20;60.90;;;;;;4995276;28;20548;-64
2021/08/12 08:39:33;;;;;;;3.80;3.03;;;24.20;60.90;;;;;;5003802;28;20475;-64
2021/08/12 08:42:00;;;;;;;3.70;2.90;;;24.20;60.90;;;;;;5000381;28;20523;-64
2021/08/12 08:44:28;;;;;;;3.33;3.00;;;24.20;60.90;;;;;;4992492;28;20910;-64
2021/08/12 08:46:55;;;;;;;3.30;2.95;;;24.20;60.90;;;;;;4992544;28;20439;-64
2021/08/12 08:49:22;;;;;;;3.33;3.03;;;24.20;60.80;;;;;;4993270;28;20383;-64
2021/08/12 08:51:50;;;;;;;3.50;2.85;;;24.20;60.90;;;;;;4997067;28;20398;-64
2021/08/12 08:54:17;;;;;;;3.70;3.30;;;24.20;60.80;;;;;;4992252;28;20391;-64
2021/08/12 08:56:44;;;;;;;3.70;3.30;;;24.20;60.90;;;;;;4988040;28;20454;-64
2021/08/12 08:59:10;;;;;;;3.70;3.08;;;24.20;61.10;;;;;;4990598;28;20483;-64
2021/08/12 09:01:36;;;;;;;3.75;3.13;;;24.20;61.00;;;;;;4989738;28;20880;-64
2021/08/12 09:04:02;;;;;;;3.50;3.20;;;24.20;61.00;;;;;;4988152;28;20447;-64
2021/08/12 09:06:28;;;;;;;3.45;2.97;;;24.20;61.00;;;;;;4986781;28;20402;-64
2021/08/12 09:08:58;;;;;;;3.90;2.93;;;24.20;60.90;;;;;;4985704;28;20838;-64
2021/08/12 09:11:27;;;;;;;3.65;3.25;;;24.20;61.00;;;;;;4989505;28;20763;-64
2021/08/12 09:13:54;;;;;;;3.20;2.90;;;24.20;60.90;;;;;;4995545;28;20437;-64
2021/08/12 09:16:30;;;;;;;3.40;3.10;;;24.20;60.90;;;;;;4989984;28;21276;-64
2021/08/12 09:19:12;;;;;;;3.50;3.20;;;24.20;61.00;;;;;;4989073;28;20514;-64
2021/08/12 09:21:38;;;;;;;3.73;3.17;;;24.20;61.00;;;;;;4986886;28;20397;-64
2021/08/12 09:24:03;;;;;;;3.25;2.90;;;24.20;61.00;;;;;;4991030;28;20385;-64
2021/08/12 09:26:38;;;;;;;3.88;3.10;;;24.20;61.10;;;;;;4997670;28;20918;-64
2021/08/12 09:29:04;;;;;;;3.70;3.28;;;24.20;61.10;;;;;;4995729;28;20418;-64
2021/08/12 09:31:29;;;;;;;3.53;3.08;;;24.20;61.00;;;;;;4987712;28;20485;-64
2021/08/12 09:33:55;;;;;;;3.40;2.93;;;24.20;61.00;;;;;;4985675;28;20871;-64
2021/08/12 09:36:33;;;;;;;3.45;3.00;;;24.20;61.00;;;;;;4990811;28;21108;-64
2021/08/12 09:39:19;;;;;;;3.40;3.08;;;24.20;61.00;;;;;;4991735;28;20430;-64
2021/08/12 09:41:49;;;;;;;3.58;3.20;;;24.20;61.00;;;;;;4984965;28;20414;-64
2021/08/12 09:44:39;;;;;;;3.85;3.30;;;24.20;61.00;;;;;;4987287;28;20402;-64
2021/08/12 09:47:07;;;;;;;3.33;2.90;;;24.20;61.10;;;;;;4993486;28;20912;-64
2021/08/12 09:49:49;;;;;;;3.90;3.33;;;24.20;61.10;;;;;;4993629;28;20421;-64
2021/08/12 09:52:32;;;;;;;3.90;3.50;;;24.20;61.10;;;;;;4992262;28;20751;-64
2021/08/12 09:55:20;;;;;;;3.90;3.25;;;24.20;61.10;;;;;;4993273;28;20762;-64
2021/08/12 09:58:05;;;;;;;3.90;3.50;;;24.20;61.10;;;;;;4992949;28;20505;-64
2021/08/12 10:00:31;;;;;;;3.78;3.30;;;24.20;61.20;;;;;;4992027;28;20405;-64
2021/08/12 10:03:00;;;;;;;5.30;3.70;;;24.20;61.30;;;;;;4993279;28;20406;-64
2021/08/12 10:05:26;;;;;;;4.82;3.63;;;24.20;61.50;;;;;;4993486;28;20444;-64
2021/08/12 10:07:55;;;;;;;4.15;3.63;;;24.20;61.50;;;;;;4992748;28;20763;-64
2021/08/12 10:10:27;;;;;;;4.90;3.38;;;24.20;61.60;;;;;;4993405;28;20468;-64
2021/08/12 10:12:55;;;;;;;4.15;3.25;;;24.20;61.60;;;;;;4993092;28;20401;-64
2021/08/12 10:15:25;;;;;;;4.35;3.40;;;24.20;61.50;;;;;;4993190;28;20413;-64
2021/08/12 10:17:52;;;;;;;6.75;3.10;;;24.20;61.50;;;;;;4992835;28;20391;-64
2021/08/12 10:20:24;;;;;;;3.40;3.10;;;24.20;61.50;;;;;;4992852;28;20423;-64
2021/08/12 10:22:52;;;;;;;3.70;3.20;;;24.20;61.40;;;;;;4992965;28;20413;-64
2021/08/12 10:25:20;;;;;;;5.55;3.47;;;24.20;61.50;;;;;;4992767;28;20403;-64
2021/08/12 10:27:53;;;;;;;4.28;3.08;;;24.20;61.40;;;;;;4991704;28;20751;-64
2021/08/12 10:30:20;;;;;;;3.50;3.15;;;24.30;61.40;;;;;;4993070;28;20406;-64
2021/08/12 10:32:54;;;;;;;4.25;3.10;;;24.20;61.40;;;;;;4992614;28;20402;-65
2021/08/12 10:35:21;;;;;;;4.22;3.30;;;24.20;61.40;;;;;;4992244;28;20409;-64
2021/08/12 10:37:48;;;;;;;3.85;3.20;;;24.30;61.40;;;;;;4992220;28;20394;-64
2021/08/12 10:40:15;;;;;;;3.90;3.40;;;24.20;61.30;;;;;;4992728;28;20426;-64
2021/08/12 10:42:45;;;;;;;3.65;3.17;;;24.20;61.30;;;;;;4991615;28;20398;-64
2021/08/12 10:45:12;;;;;;;3.72;3.25;;;24.30;61.40;;;;;;4991974;28;20477;-64
2021/08/12 10:47:55;;;;;;;4.03;3.30;;;24.20;61.30;;;;;;4990778;28;20390;-64
2021/08/12 10:50:26;;;;;;;4.00;3.20;;;24.30;61.40;;;;;;4992643;28;20485;-64
2021/08/12 10:53:04;;;;;;;3.60;3.08;;;24.20;61.30;;;;;;5007506;28;20443;-64
2021/08/12 10:55:31;;;;;;;3.83;3.22;;;24.30;61.30;;;;;;4992104;28;20815;-64
2021/08/12 10:58:18;;;;;;;3.78;3.15;;;24.30;61.40;;;;;;4991109;28;20457;-64
2021/08/12 11:00:50;;;;;;;4.80;3.15;;;24.30;61.30;;;;;;4992147;28;20393;-64
2021/08/12 11:03:34;;;;;;;3.90;3.20;;;24.30;61.50;;;;;;4992417;28;20867;-64
2021/08/12 11:06:13;;;;;;;3.53;3.03;;;24.30;61.20;;;;;;4991458;28;20413;-64
2021/08/12 11:08:52;;;;;;;3.80;3.22;;;24.30;61.30;;;;;;4991928;28;20406;-64
2021/08/12 11:11:26;;;;;;;3.65;3.00;;;24.30;61.20;;;;;;4991807;28;20485;-64
2021/08/12 11:13:57;;;;;;;3.58;3.08;;;24.30;61.20;;;;;;4991303;28;20405;-64
2021/08/12 11:16:25;;;;;;;3.65;3.20;;;24.30;61.20;;;;;;4992193;28;20923;-64
2021/08/12 11:18:56;;;;;;;4.07;3.13;;;24.30;61.30;;;;;;4991887;28;20410;-64
2021/08/12 11:21:31;;;;;;;3.35;2.90;;;24.30;61.20;;;;;;4992140;28;20922;-64
2021/08/12 11:24:04;;;;;;;3.50;3.15;;;24.30;61.20;;;;;;4991725;28;20397;-64
2021/08/12 11:26:59;;;;;;;3.67;3.10;;;24.30;61.20;;;;;;4991871;28;20402;-64
2021/08/12 11:29:30;;;;;;;3.58;3.20;;;24.30;61.10;;;;;;4987085;28;20816;-64
2021/08/12 11:32:10;;;;;;;3.42;3.13;;;24.30;61.10;;;;;;4991534;28;20405;-64
2021/08/12 11:34:51;;;;;;;4.05;3.30;;;24.40;61.20;;;;;;4991859;28;20409;-64
2021/08/12 11:37:20;;;;;;;4.32;3.28;;;24.30;61.10;;;;;;4991870;28;20438;-64
2021/08/12 11:39:49;;;;;;;3.75;3.20;;;24.40;61.20;;;;;;4991559;28;20482;-64
2021/08/12 11:42:21;;;;;;;3.40;3.10;;;24.40;61.20;;;;;;4991163;28;20409;-64
2021/08/12 11:44:52;;;;;;;3.90;3.40;;;24.40;61.10;;;;;;4992517;28;20394;-64
2021/08/12 11:47:19;;;;;;;3.45;3.15;;;24.30;61.10;;;;;;4995950;28;20447;-64
2021/08/12 11:49:53;;;;;;;4.40;3.28;;;24.40;61.10;;;;;;4996875;28;20807;-64
2021/08/12 11:52:36;;;;;;;3.67;3.25;;;24.40;61.20;;;;;;4994534;28;20950;-63
2021/08/12 11:55:11;;;;;;;4.20;3.25;;;24.40;61.20;;;;;;4995608;28;20941;-63
2021/08/12 11:57:48;;;;;;;5.70;3.90;;;24.40;61.10;;;;;;4995543;28;20413;-64
2021/08/12 12:00:33;;;;;;;5.75;3.80;;;24.40;61.40;;;;;;4995568;28;20441;-64
2021/08/12 12:03:04;;;;;;;5.20;4.15;;;24.50;61.50;;;;;;4995443;28;20893;-63
2021/08/12 12:05:38;;;;;;;4.40;3.80;;;24.40;61.80;;;;;;4995546;28;20453;-63
2021/08/12 12:08:07;;;;;;;6.32;3.83;;;24.50;61.80;;;;;;4994785;28;21019;-64
2021/08/12 12:10:41;;;;;;;4.88;4.10;;;24.50;61.80;;;;;;4995316;28;20391;-63
2021/08/12 12:13:16;;;;;;;4.53;3.63;;;24.60;61.70;;;;;;4994906;28;20765;-64
2021/08/12 12:15:43;;;;;;;4.88;3.80;;;24.50;61.60;;;;;;5004913;28;20500;-64
2021/08/12 12:18:09;;;;;;;6.60;4.05;;;24.50;61.50;;;;;;5001745;28;20401;-64
2021/08/12 12:20:39;;;;;;;4.72;3.80;;;24.50;61.40;;;;;;5014055;28;20384;-64
2021/08/12 12:23:10;;;;;;;4.50;3.75;;;24.60;61.40;;;;;;5014051;28;20389;-64
2021/08/12 12:25:42;;;;;;;4.32;3.80;;;24.60;61.30;;;;;;5014416;28;20439;-64
2021/08/12 12:28:10;;;;;;;4.17;3.53;;;24.60;61.30;;;;;;5013095;28;20399;-64
2021/08/12 12:30:36;;;;;;;4.32;3.70;;;24.60;61.40;;;;;;5014210;28;20393;-64
2021/08/12 12:33:14;;;;;;;4.20;3.63;;;24.60;61.30;;;;;;5014653;28;20393;-64
2021/08/12 12:35:48;;;;;;;3.83;3.42;;;24.60;61.30;;;;;;5014429;28;20427;-64
2021/08/12 12:38:20;;;;;;;5.55;3.63;;;24.60;61.20;;;;;;5014407;28;20495;-63
2021/08/12 12:40:47;;;;;;;5.30;3.50;;;24.60;61.20;;;;;;5014465;28;20853;-63
2021/08/12 12:43:14;;;;;;;4.88;3.80;;;24.60;61.10;;;;;;5014340;28;20381;-64
2021/08/12 12:45:54;;;;;;;4.10;3.65;;;24.60;61.10;;;;;;5013917;28;20774;-64
2021/08/12 12:48:30;;;;;;;4.47;3.70;;;24.60;61.10;;;;;;5014220;28;20401;-64
2021/08/12 12:50:57;;;;;;;4.70;3.72;;;24.60;61.10;;;;;;5013900;28;20389;-64
2021/08/12 12:53:40;;;;;;;4.53;3.92;;;24.60;61.10;;;;;;5014327;28;20397;-64
2021/08/12 12:56:19;;;;;;;4.45;3.80;;;24.70;61.20;;;;;;5013036;28;20975;-63